createdAt,value
2023-05-16T00:00:05.197Z,9.711705
2023-05-16T00:01:05.206Z,9.711639
2023-05-16T00:02:05.202Z,9.711652
2023-05-16T00:03:05.332Z,9.711669
2023-05-16T00:04:05.229Z,9.711630
2023-05-16T00:05:05.183Z,9.711550
2023-05-16T00:06:06.029Z,9.711642
2023-05-16T00:07:05.131Z,9.711542
2023-05-16T00:08:05.132Z,9.711635
2023-05-16T00:09:05.116Z,9.711649
2023-05-16T00:10:05.120Z,9.711630
2023-05-16T00:11:05.134Z,9.711651
2023-05-16T00:12:05.094Z,9.711635
2023-05-16T00:13:05.098Z,9.711567
2023-05-16T00:14:05.094Z,9.711497
2023-05-16T00:15:05.078Z,9.711634
2023-05-16T00:16:05.108Z,9.711688
2023-05-16T00:17:05.367Z,9.711651
2023-05-16T00:18:05.085Z,9.711730
2023-05-16T00:19:05.104Z,9.711687
2023-05-16T00:20:05.033Z,9.711694
2023-05-16T00:39:53.210Z,9.711666
2023-05-16T00:40:53.235Z,9.711823
2023-05-16T00:41:53.184Z,9.711846
2023-05-16T00:42:53.179Z,9.711740
2023-05-16T00:43:53.161Z,9.711871
2023-05-16T00:44:53.169Z,9.711845
2023-05-16T00:45:53.231Z,9.711974
2023-05-16T00:46:53.815Z,9.711928
2023-05-16T00:47:53.165Z,9.712301
2023-05-16T00:48:53.167Z,9.712517
2023-05-16T00:49:53.133Z,9.712518
2023-05-16T00:50:53.115Z,9.712267
2023-05-16T00:51:53.128Z,9.712150
2023-05-16T00:52:53.096Z,9.712862
2023-05-16T00:53:53.099Z,9.712659
2023-05-16T00:54:53.081Z,9.712383
2023-05-16T00:55:53.076Z,9.712073
2023-05-16T00:56:53.083Z,9.711990
2023-05-16T00:57:53.077Z,9.712089
2023-05-16T00:58:53.050Z,9.712133
2023-05-16T00:59:53.030Z,9.711988
2023-05-16T01:00:53.014Z,9.712106
2023-05-16T01:01:53.153Z,9.712276
2023-05-16T01:02:53.096Z,9.712120
2023-05-16T01:03:53.272Z,9.712210
2023-05-16T01:04:52.999Z,9.711735
2023-05-16T01:05:53.003Z,9.711664
2023-05-16T01:06:53.039Z,9.711700
2023-05-16T01:07:52.973Z,9.711628
2023-05-16T01:08:52.968Z,9.711624
2023-05-16T01:09:52.950Z,9.711654
2023-05-16T01:10:52.943Z,9.711634
2023-05-16T01:11:52.946Z,9.711641
2023-05-16T01:12:52.932Z,9.711645
2023-05-16T01:13:52.914Z,9.711662
2023-05-16T01:14:52.916Z,9.711670
2023-05-16T01:15:52.918Z,9.711642
2023-05-16T01:16:52.900Z,9.711675
2023-05-16T01:17:53.054Z,9.711733
2023-05-16T01:18:52.967Z,9.711664
2023-05-16T01:19:52.892Z,9.711658
2023-05-16T01:20:52.858Z,9.711691
2023-05-16T01:21:52.849Z,9.711595
2023-05-16T01:22:52.846Z,9.711576
2023-05-16T01:23:52.860Z,9.711513
2023-05-16T01:24:52.822Z,9.711554
2023-05-16T01:25:52.805Z,9.711551
2023-05-16T01:26:52.798Z,9.711538
2023-05-16T01:27:52.802Z,9.711591
2023-05-16T01:28:52.794Z,9.711582
2023-05-16T01:29:52.774Z,9.711535
2023-05-16T01:30:52.774Z,9.711561
2023-05-16T01:31:52.858Z,9.711610
2023-05-16T01:32:52.787Z,9.711520
2023-05-16T01:33:52.933Z,9.711618
2023-05-16T01:34:52.773Z,9.711514
2023-05-16T01:35:52.728Z,9.711497
2023-05-16T01:36:52.756Z,9.711516
2023-05-16T01:37:52.737Z,9.711702
2023-05-16T01:38:52.716Z,9.711719
2023-05-16T01:39:52.689Z,9.711647
2023-05-16T01:40:52.690Z,9.711643
2023-05-16T01:41:52.676Z,9.711713
2023-05-16T01:42:53.410Z,9.711742
2023-05-16T01:43:52.655Z,9.711491
2023-05-16T01:44:52.647Z,9.711495
2023-05-16T01:45:52.643Z,9.711554
2023-05-16T01:46:52.730Z,9.711587
2023-05-16T01:47:52.720Z,9.711623
2023-05-16T01:48:52.646Z,9.711455
2023-05-16T01:49:52.641Z,9.711468
2023-05-16T01:50:52.608Z,9.711672
2023-05-16T01:51:52.612Z,9.711760
2023-05-16T01:52:52.592Z,9.711706
2023-05-16T01:53:52.606Z,9.711665
2023-05-16T01:54:52.568Z,9.711631
2023-05-16T01:55:52.579Z,9.711637
2023-05-16T01:56:52.612Z,9.711615
2023-05-16T01:57:52.554Z,9.711484
2023-05-16T01:58:52.553Z,9.711535
2023-05-16T01:59:52.534Z,9.711531
2023-05-16T02:00:52.587Z,9.711609
2023-05-16T02:01:52.514Z,9.711652
2023-05-16T02:02:52.561Z,9.711732
2023-05-16T02:03:52.542Z,9.711750
2023-05-16T02:04:52.513Z,9.711699
2023-05-16T02:05:52.482Z,9.711640
2023-05-16T02:06:52.491Z,9.711693
2023-05-16T02:07:52.477Z,9.711589
2023-05-16T02:08:52.486Z,9.711555
2023-05-16T02:09:52.454Z,9.711724
2023-05-16T02:10:52.449Z,9.711764
2023-05-16T02:11:52.431Z,9.711618
2023-05-16T02:12:52.426Z,9.711567
2023-05-16T02:13:52.443Z,9.711751
2023-05-16T02:14:52.400Z,9.711634
2023-05-16T02:15:52.401Z,9.711514
2023-05-16T02:16:52.506Z,9.711636
2023-05-16T02:17:52.412Z,9.711645
2023-05-16T02:18:52.413Z,9.711575
2023-05-16T02:19:52.369Z,9.711584
2023-05-16T02:20:52.361Z,9.711685
2023-05-16T02:21:52.405Z,9.711662
2023-05-16T02:22:52.385Z,9.711634
2023-05-16T02:23:52.366Z,9.711616
2023-05-16T02:24:52.341Z,9.711819
2023-05-16T02:25:52.331Z,9.712149
2023-05-16T02:26:52.332Z,9.712131
2023-05-16T02:27:52.326Z,9.712111
2023-05-16T02:28:52.304Z,9.712084
2023-05-16T02:29:52.286Z,9.712200
2023-05-16T02:30:52.328Z,9.712070
2023-05-16T02:31:52.286Z,9.711804
2023-05-16T02:32:52.304Z,9.711813
2023-05-16T02:33:52.256Z,9.711758
2023-05-16T02:34:52.258Z,9.711763
2023-05-16T02:35:52.802Z,9.711701
2023-05-16T02:36:52.230Z,9.711717
2023-05-16T02:37:52.266Z,9.711732
2023-05-16T02:38:52.236Z,9.711791
2023-05-16T02:39:52.214Z,9.711744
2023-05-16T02:40:52.207Z,9.711764
2023-05-16T02:41:52.183Z,9.711575
2023-05-16T02:42:52.195Z,9.711768
2023-05-16T02:43:52.176Z,9.711760
2023-05-16T02:44:52.180Z,9.711768
2023-05-16T02:45:52.198Z,9.711791
2023-05-16T02:46:52.222Z,9.711731
2023-05-16T02:47:52.192Z,9.711726
2023-05-16T02:48:52.161Z,9.711724
2023-05-16T02:49:52.151Z,9.711718
2023-05-16T02:50:52.134Z,9.711730
2023-05-16T02:51:52.114Z,9.711752
2023-05-16T02:52:52.099Z,9.711859
2023-05-16T02:53:52.081Z,9.711773
2023-05-16T02:55:00.244Z,9.711659
2023-05-16T02:55:54.105Z,9.711688
2023-05-16T02:56:52.079Z,9.711677
2023-05-16T02:57:52.068Z,9.711662
2023-05-16T02:58:52.060Z,9.711701
2023-05-16T02:59:52.047Z,9.711703
2023-05-16T03:00:52.048Z,9.711759
2023-05-16T03:01:52.083Z,9.711736
2023-05-16T03:02:52.144Z,9.711698
2023-05-16T03:03:52.200Z,9.711605
2023-05-16T03:04:52.006Z,9.711653
2023-05-16T03:05:51.997Z,9.711817
2023-05-16T03:06:52.001Z,9.711712
2023-05-16T03:07:51.983Z,9.711701
2023-05-16T03:08:51.983Z,9.711762
2023-05-16T03:09:51.981Z,9.711690
2023-05-16T03:10:51.963Z,9.711807
2023-05-16T03:11:51.944Z,9.711691
2023-05-16T03:12:51.943Z,9.711553
2023-05-16T03:13:51.932Z,9.711682
2023-05-16T03:14:51.923Z,9.711637
2023-05-16T03:15:52.001Z,9.711631
2023-05-16T03:16:51.898Z,9.711775
2023-05-16T03:17:51.923Z,9.711857
2023-05-16T03:18:51.933Z,9.711762
2023-05-16T03:19:51.877Z,9.711575
2023-05-16T03:20:51.922Z,9.711677
2023-05-16T03:21:51.870Z,9.711791
2023-05-16T03:22:51.860Z,9.711971
2023-05-16T03:23:51.838Z,9.711719
2023-05-16T03:24:51.901Z,9.711727
2023-05-16T03:25:51.841Z,9.711727
2023-05-16T03:26:51.833Z,9.711510
2023-05-16T03:27:51.821Z,9.711237
2023-05-16T03:28:51.838Z,9.711381
2023-05-16T03:29:51.801Z,9.711811
2023-05-16T03:30:51.780Z,9.711974
2023-05-16T03:31:51.806Z,9.711938
2023-05-16T03:32:51.802Z,9.712002
2023-05-16T03:33:52.357Z,9.711936
2023-05-16T03:34:51.822Z,9.711817
2023-05-16T03:35:52.440Z,9.711625
2023-05-16T03:36:51.761Z,9.712111
2023-05-16T03:37:51.724Z,9.711985
2023-05-16T03:38:51.729Z,9.712049
2023-05-16T03:39:51.720Z,9.712081
2023-05-16T03:40:51.707Z,9.712261
2023-05-16T03:41:51.719Z,9.712228
2023-05-16T03:42:51.719Z,9.712306
2023-05-16T03:43:51.684Z,9.712267
2023-05-16T03:44:51.708Z,9.712230
2023-05-16T03:45:51.722Z,9.712377
2023-05-16T03:46:51.700Z,9.712101
2023-05-16T03:47:51.685Z,9.712104
2023-05-16T03:48:51.676Z,9.711967
2023-05-16T03:49:51.641Z,9.712067
2023-05-16T03:50:51.654Z,9.712391
2023-05-16T03:51:52.648Z,9.712454
2023-05-16T03:52:51.613Z,9.712259
2023-05-16T03:53:51.683Z,9.711878
2023-05-16T03:54:52.437Z,9.711747
2023-05-16T03:55:51.596Z,9.711659
2023-05-16T03:56:51.610Z,9.711641
2023-05-16T03:57:51.569Z,9.711660
2023-05-16T03:58:51.585Z,9.711678
2023-05-16T03:59:51.568Z,9.711652
2023-05-16T04:00:51.568Z,9.711587
2023-05-16T04:01:51.578Z,9.711551
2023-05-16T04:02:51.681Z,9.711597
2023-05-16T04:03:51.529Z,9.711607
2023-05-16T04:04:52.359Z,9.711679
2023-05-16T04:05:51.555Z,9.711718
2023-05-16T04:06:51.495Z,9.711713
2023-05-16T04:07:51.505Z,9.711672
2023-05-16T04:08:51.494Z,9.711684
2023-05-16T04:09:51.473Z,9.711674
2023-05-16T04:10:51.452Z,9.711619
2023-05-16T04:11:52.480Z,9.711622
2023-05-16T04:12:51.464Z,9.711717
2023-05-16T04:13:51.505Z,9.711736
2023-05-16T04:14:51.466Z,9.711732
2023-05-16T04:15:51.430Z,9.711793
2023-05-16T04:16:51.542Z,9.711738
2023-05-16T04:17:52.021Z,9.711681
2023-05-16T04:18:51.437Z,9.711705
2023-05-16T04:19:52.379Z,9.711739
2023-05-16T04:20:51.420Z,9.711688
2023-05-16T04:21:51.406Z,9.711642
2023-05-16T04:22:51.370Z,9.711697
2023-05-16T04:23:51.369Z,9.711627
2023-05-16T04:24:51.355Z,9.711665
2023-05-16T04:25:51.343Z,9.711628
2023-05-16T04:26:51.347Z,9.711467
2023-05-16T04:27:51.345Z,9.711386
2023-05-16T04:28:51.359Z,9.711585
2023-05-16T04:29:51.312Z,9.712149
2023-05-16T04:30:51.319Z,9.711783
2023-05-16T04:31:51.379Z,9.711761
2023-05-16T04:32:51.366Z,9.711922
2023-05-16T04:33:51.299Z,9.711882
2023-05-16T04:34:51.264Z,9.711895
2023-05-16T04:35:51.272Z,9.711877
2023-05-16T04:36:51.258Z,9.711911
2023-05-16T04:37:51.339Z,9.711832
2023-05-16T04:38:51.242Z,9.711938
2023-05-16T04:39:51.240Z,9.711731
2023-05-16T04:40:51.221Z,9.711727
2023-05-16T04:41:51.210Z,9.711694
2023-05-16T04:42:51.219Z,9.711621
2023-05-16T04:43:51.189Z,9.711637
2023-05-16T04:44:51.201Z,9.711696
2023-05-16T04:45:51.274Z,9.711638
2023-05-16T04:46:51.184Z,9.711674
2023-05-16T04:47:51.213Z,9.711726
2023-05-16T04:48:51.181Z,9.711718
2023-05-16T04:49:51.157Z,9.711683
2023-05-16T04:50:51.151Z,9.711746
2023-05-16T04:51:51.150Z,9.711807
2023-05-16T04:52:51.138Z,9.711704
2023-05-16T04:53:51.113Z,9.711771
2023-05-16T04:54:51.120Z,9.711801
2023-05-16T04:55:51.121Z,9.712069
2023-05-16T04:56:51.119Z,9.711711
2023-05-16T04:57:51.082Z,9.711796
2023-05-16T04:58:51.085Z,9.711796
2023-05-16T04:59:51.081Z,9.711869
2023-05-16T05:00:51.056Z,9.711824
2023-05-16T05:01:51.113Z,9.711844
2023-05-16T05:02:51.117Z,9.711713
2023-05-16T05:03:51.029Z,9.711544
2023-05-16T05:04:51.105Z,9.711728
2023-05-16T05:05:51.044Z,9.711946
2023-05-16T05:06:51.013Z,9.711981
2023-05-16T05:07:51.005Z,9.711933
2023-05-16T05:08:50.999Z,9.711789
2023-05-16T05:09:50.996Z,9.711752
2023-05-16T05:10:51.963Z,9.711839
2023-05-16T05:11:50.988Z,9.711785
2023-05-16T05:12:50.967Z,9.711805
2023-05-16T05:13:52.879Z,9.711841
2023-05-16T05:14:51.949Z,9.711827
2023-05-16T05:15:50.934Z,9.711771
2023-05-16T05:16:51.021Z,9.711720
2023-05-16T05:17:51.050Z,9.711796
2023-05-16T05:18:51.097Z,9.711818
2023-05-16T05:19:51.956Z,9.711813
2023-05-16T05:20:50.945Z,9.711776
2023-05-16T05:21:50.896Z,9.711767
2023-05-16T05:22:50.871Z,9.711761
2023-05-16T05:23:50.875Z,9.711785
2023-05-16T05:24:50.853Z,9.711761
2023-05-16T05:25:50.848Z,9.711697
2023-05-16T05:26:50.846Z,9.711721
2023-05-16T05:27:50.830Z,9.711762
2023-05-16T05:29:01.204Z,9.711755
2023-05-16T05:29:52.837Z,9.711779
2023-05-16T05:30:50.814Z,9.711715
2023-05-16T05:31:50.907Z,9.711731
2023-05-16T05:32:51.442Z,9.711726
2023-05-16T05:33:50.802Z,9.711775
2023-05-16T05:34:50.775Z,9.711756
2023-05-16T05:35:50.760Z,9.711806
2023-05-16T05:36:52.485Z,9.711701
2023-05-16T05:37:50.754Z,9.711785
2023-05-16T05:38:50.969Z,9.711680
2023-05-16T05:39:50.733Z,9.711703
2023-05-16T05:40:51.478Z,9.711752
2023-05-16T05:41:50.742Z,9.711756
2023-05-16T05:42:50.705Z,9.711690
2023-05-16T05:43:50.705Z,9.711724
2023-05-16T05:44:50.716Z,9.711690
2023-05-16T05:45:50.715Z,9.711684
2023-05-16T05:46:50.715Z,9.711738
2023-05-16T05:47:50.794Z,9.711742
2023-05-16T05:48:50.659Z,9.711703
2023-05-16T05:49:50.657Z,9.711747
2023-05-16T05:50:50.660Z,9.711752
2023-05-16T05:51:50.648Z,9.711716
2023-05-16T05:52:50.648Z,9.711813
2023-05-16T05:53:51.466Z,9.711752
2023-05-16T05:54:51.343Z,9.711693
2023-05-16T05:55:50.609Z,9.711718
2023-05-16T05:56:50.596Z,9.711752
2023-05-16T05:57:50.596Z,9.711762
2023-05-16T05:58:50.568Z,9.711726
2023-05-16T05:59:50.583Z,9.711692
2023-05-16T06:00:50.556Z,9.711900
2023-05-16T06:01:50.594Z,9.711986
2023-05-16T06:02:50.733Z,9.711839
2023-05-16T06:03:50.583Z,9.711769
2023-05-16T06:04:50.529Z,9.711803
2023-05-16T06:05:50.585Z,9.711834
2023-05-16T06:06:50.526Z,9.711860
2023-05-16T06:07:50.501Z,9.711613
2023-05-16T06:08:50.512Z,9.711526
2023-05-16T06:09:50.537Z,9.711548
2023-05-16T06:10:51.485Z,9.711573
2023-05-16T06:11:51.483Z,9.711688
2023-05-16T06:12:50.485Z,9.711654
2023-05-16T06:13:50.488Z,9.711717
2023-05-16T06:14:50.450Z,9.711721
2023-05-16T21:59:01.260Z,9.711522
2023-05-16T22:00:02.260Z,9.711559
2023-05-16T22:01:01.270Z,9.711591
2023-05-16T22:02:01.216Z,9.711617
2023-05-16T22:03:01.294Z,9.711617
2023-05-16T22:04:01.266Z,9.711647
2023-05-16T22:05:01.283Z,9.711639
2023-05-16T22:06:01.198Z,9.711618
2023-05-16T22:07:01.182Z,9.711612
2023-05-16T22:08:01.208Z,9.711600
2023-05-16T22:09:02.107Z,9.711684
2023-05-16T22:10:03.022Z,9.711660
2023-05-16T22:11:01.148Z,9.711686
2023-05-16T22:12:01.137Z,9.711687
2023-05-16T22:13:01.137Z,9.711790
2023-05-16T22:14:01.187Z,9.711989
2023-05-16T22:15:01.123Z,9.711937
2023-05-16T22:16:04.546Z,9.711700
2023-05-16T22:17:02.103Z,9.711897
2023-05-16T22:18:01.204Z,9.711941
2023-05-16T22:19:01.201Z,9.711665
2023-05-16T22:20:01.111Z,9.711921
2023-05-16T22:21:01.079Z,9.711983
2023-05-16T22:22:01.057Z,9.711994
2023-05-16T22:23:01.073Z,9.711842
2023-05-16T22:24:01.052Z,9.711712
2023-05-16T22:25:01.116Z,9.711676
2023-05-16T22:26:01.052Z,9.711779
2023-05-16T22:27:01.027Z,9.711790
2023-05-16T22:28:01.050Z,9.711798
2023-05-16T22:29:01.006Z,9.711772
2023-05-16T22:30:00.994Z,9.711771
2023-05-16T22:31:00.974Z,9.711865
2023-05-16T22:32:00.995Z,9.711779
2023-05-16T22:33:01.722Z,9.711786
2023-05-16T22:34:00.978Z,9.711784
2023-05-16T22:35:00.956Z,9.711843
2023-05-16T22:36:00.944Z,9.711796
2023-05-16T22:37:00.927Z,9.711775
2023-05-16T22:38:00.944Z,9.711788
2023-05-16T22:39:00.957Z,9.711748
2023-05-16T22:40:00.907Z,9.711705
2023-05-16T22:41:00.901Z,9.711817
2023-05-16T22:42:00.892Z,9.711740
2023-05-16T22:43:00.898Z,9.711781
2023-05-16T22:44:00.920Z,9.711778
2023-05-16T22:45:00.931Z,9.711931
2023-05-16T22:46:03.041Z,9.711849
2023-05-16T22:47:01.855Z,9.711928
2023-05-16T22:48:00.899Z,9.711823
2023-05-16T22:49:00.941Z,9.711897
2023-05-16T22:50:00.870Z,9.711914
2023-05-16T22:51:00.844Z,9.711830
2023-05-16T22:52:00.882Z,9.711824
2023-05-16T22:53:00.843Z,9.711796
2023-05-16T22:54:00.794Z,9.711739
2023-05-16T22:55:00.781Z,9.711777
2023-05-16T22:56:00.783Z,9.711623
2023-05-16T22:57:00.804Z,9.711810
2023-05-16T22:58:00.815Z,9.711678
2023-05-16T22:59:00.745Z,9.711674
2023-05-16T23:00:00.769Z,9.711791
2023-05-16T23:01:00.741Z,9.711765
2023-05-16T23:02:00.737Z,9.711911
2023-05-16T23:03:00.833Z,9.711769
2023-05-16T23:04:00.817Z,9.711954
2023-05-16T23:05:00.789Z,9.711815
2023-05-16T23:06:00.719Z,9.711835
2023-05-16T23:07:00.696Z,9.711960
2023-05-16T23:08:00.689Z,9.711926
2023-05-16T23:09:00.706Z,9.712125
2023-05-16T23:10:00.677Z,9.712023
2023-05-16T23:11:00.686Z,9.712029
2023-05-16T23:12:00.692Z,9.712098
2023-05-16T23:13:00.841Z,9.712129
2023-05-16T23:14:00.668Z,9.712091
2023-05-16T23:15:00.637Z,9.712078
2023-05-16T23:16:00.627Z,9.712041
2023-05-16T23:17:00.637Z,9.712167
2023-05-16T23:18:00.690Z,9.711963
2023-05-16T23:19:00.697Z,9.711965
2023-05-16T23:20:00.783Z,9.712343
2023-05-16T23:21:00.634Z,9.712359
2023-05-16T23:22:00.581Z,9.712382
2023-05-16T23:23:00.560Z,9.712268
2023-05-16T23:24:05.112Z,9.712328
2023-05-16T23:25:00.598Z,9.712390
2023-05-16T23:26:00.558Z,9.712249
2023-05-16T23:27:00.554Z,9.712310
2023-05-16T23:28:00.539Z,9.712243
2023-05-16T23:29:00.603Z,9.712384
2023-05-16T23:30:00.503Z,9.712280
2023-05-16T23:31:00.524Z,9.712102
2023-05-16T23:32:00.493Z,9.712068
2023-05-16T23:33:00.608Z,9.712299
2023-05-16T23:34:00.671Z,9.712231
2023-05-16T23:35:00.485Z,9.712272
2023-05-16T23:36:00.475Z,9.712356
2023-05-16T23:37:00.456Z,9.712198
2023-05-16T23:38:00.484Z,9.712170
2023-05-16T23:39:00.445Z,9.712274
2023-05-16T23:40:00.446Z,9.712114
2023-05-16T23:41:01.111Z,9.712333
2023-05-16T23:42:00.454Z,9.712170
2023-05-16T23:43:00.486Z,9.712084
2023-05-16T23:44:00.393Z,9.712190
2023-05-16T23:45:00.481Z,9.711873
2023-05-16T23:46:00.436Z,9.712049
2023-05-16T23:47:00.412Z,9.712121
2023-05-16T23:48:00.437Z,9.711933
2023-05-16T23:49:00.436Z,9.712239
2023-05-16T23:50:00.355Z,9.711911
2023-05-16T23:51:00.371Z,9.712025
2023-05-16T23:52:01.137Z,9.712046
2023-05-16T23:53:00.355Z,9.711697
2023-05-16T23:54:00.323Z,9.711731
2023-05-16T23:55:00.426Z,9.711695
2023-05-16T23:56:00.318Z,9.711720
2023-05-16T23:57:00.382Z,9.711670
2023-05-16T23:58:00.284Z,9.711673
2023-05-16T23:59:00.290Z,9.711683
